Airfield :
LOGIN :

Register | Disclaimer

   EN    FR    IT 

 










Legend :    VFR   Marginal VFR   IFR   Intensive IFR   Very Intensive IFR
Visi :
Ceiling :
>= 8 km
>= 3000ft
5 to 8 km
1000 to 3000 ft
1500m to 5 km
500 to 1000 ft
800 to 1500m
200 to 500 ft
< 800m
< 200 ft
Symbols :   Thunderstorms  Fog  Heavy snow  Heavy precipitations  Wind > 20 kt
SIGMETs :     Misc.  Thunderstorms  Icing  Turbulence  Mountain Waves  Volcanic Ashes







- Airport Elevation : 13 ft
- IATA code : SNR
- Download approach charts


LFRZ - St-Nazaire

CURRENT METAR :
  • 221130Z AUTO 18018KT 9999 FEW033 OVC042 19/12 Q1020 TEMPO 23017G28KT

EXPIRED METARs :
  • 221100Z AUTO 18018KT 9999 SCT028 BKN041 BKN047 19/13 Q1021 TEMPO 16004KT
  • 221000Z AUTO 17014KT 9999 FEW031 BKN060 OVC078 17/12 Q1022 BECMG 16004KT
  • 220930Z AUTO 16013KT 9999 FEW036 OVC068 17/12 Q1022 NOSIG
  • 220900Z AUTO 16011KT 9999 BKN035 OVC066 16/12 Q1022 NOSIG

TAF TAF LFRZ
Valid from the 22 at 12:00 until the 23 at 12:00 UTC


221100Z 2212/2312 21012KT 9999 BKN035
BECMG 2214/2216 BKN012
TEMPO 2212/2224 23017G28KT
TEMPO 2216/2312 2000 -RADZ OVC003
TEMPO 2310/2312 22015G25KT
No reported NOTAMs for that airfield.



MET'MAP, your aeronautical weather chart ! - Copyright ORBIFLY December 2007 - Disclaimer

ORBIFLY MET'MAP TEAM :

Programming & Development : Alexandra Zaïnal
Concept & Development : Baudouin d'Aumeries
Co-Development & Prog : Marc-Olivier Méhu
Technical & hardware support : Manuel Goepfert

Contact : metmap@orbifly.com




SOURCES & CREDITS :

   NOAA